Time;durP1;ratioP1;P1;durP2;ratioP2;P2;SDS_P1;SDS_P2;PMS_P1;PMS_P2;Temp;Humidity;BMP_temperature;BMP_pressure;BME280_temperature;BME280_humidity;BME280_pressure;Samples;Min_cycle;Max_cycle;Signal;HPM_P1;HPM_P2
2023/12/20 00:02:20;;;;;;;;;;;;;;;13.73;nan;100835.34;5029085;28;19925;-83
2023/12/20 00:04:46;;;;;;;;;;;;;;;13.76;nan;100842.88;5029869;28;19924;-82
2023/12/20 00:07:11;;;;;;;;;;;;;;;13.79;nan;100834.25;5027354;28;19925;-82
2023/12/20 00:09:36;;;;;;;;;;;;;;;13.81;nan;100842.88;5028193;28;20062;-82
2023/12/20 00:12:01;;;;;;;;;;;;;;;13.79;nan;100839.63;5029763;28;20003;-82
2023/12/20 00:14:27;;;;;;;;;;;;;;;13.81;nan;100832.09;5028716;28;19925;-82
2023/12/20 00:16:52;;;;;;;;;;;;;;;13.84;nan;100831.59;5029389;28;20444;-83
2023/12/20 00:19:17;;;;;;;;;;;;;;;13.86;nan;100823.25;5028573;28;19925;-83
2023/12/20 00:21:43;;;;;;;;;;;;;;;13.86;nan;100815.16;5029085;28;19944;-83
2023/12/20 00:24:08;;;;;;;;;;;;;;;13.89;nan;100825.41;5030388;28;20498;-83
2023/12/20 00:26:34;;;;;;;;;;;;;;;13.92;nan;100824.84;5028899;28;19929;-82
2023/12/20 00:28:59;;;;;;;;;;;;;;;13.96;nan;100827.81;5028481;28;19927;-83
2023/12/20 00:31:24;;;;;;;;;;;;;;;14.00;nan;100820.81;5029100;28;19924;-82
2023/12/20 00:33:49;;;;;;;;;;;;;;;14.01;nan;100820.56;5030042;28;19928;-83
2023/12/20 00:36:15;;;;;;;;;;;;;;;14.05;nan;100826.22;5030147;28;20404;-83
2023/12/20 00:38:40;;;;;;;;;;;;;;;14.05;nan;100827.03;5029956;28;19929;-83
2023/12/20 00:41:06;;;;;;;;;;;;;;;14.08;nan;100821.09;5029567;28;19921;-82
2023/12/20 00:43:31;;;;;;;;;;;;;;;14.11;nan;100825.94;5030137;28;19928;-83
2023/12/20 00:45:57;;;;;;;;;;;;;;;14.11;nan;100822.44;5029587;28;19928;-83
2023/12/20 00:48:22;;;;;;;;;;;;;;;14.11;nan;100842.09;5030080;28;20374;-83
2023/12/20 00:50:47;;;;;;;;;;;;;;;14.14;nan;100821.88;5030679;28;20058;-83
2023/12/20 00:53:12;;;;;;;;;;;;;;;14.16;nan;100814.34;5030408;28;19925;-83
2023/12/20 00:55:38;;;;;;;;;;;;;;;14.12;nan;100807.88;5030181;28;19931;-82
2023/12/20 00:58:03;;;;;;;;;;;;;;;14.08;nan;100815.69;5028487;28;20007;-82
2023/12/20 01:00:28;;;;;;;;;;;;;;;14.05;nan;100799.28;5030110;28;19929;-83
2023/12/20 01:02:53;;;;;;;;;;;;;;;14.04;nan;100809.25;5029460;28;20523;-83
2023/12/20 01:05:19;;;;;;;;;;;;;;;14.01;nan;100801.69;5028510;28;19929;-83
2023/12/20 01:07:44;;;;;;;;;;;;;;;14.02;nan;100806.00;5029607;28;20082;-83
2023/12/20 01:10:10;;;;;;;;;;;;;;;14.03;nan;100825.69;5029791;28;19925;-82
2023/12/20 01:12:36;;;;;;;;;;;;;;;14.04;nan;100817.31;5029246;28;20380;-83
2023/12/20 01:15:01;;;;;;;;;;;;;;;14.08;nan;100821.09;5028048;28;19940;-83
2023/12/20 01:17:26;;;;;;;;;;;;;;;14.09;nan;100809.22;5028468;28;20389;-83
2023/12/20 01:19:51;;;;;;;;;;;;;;;14.07;nan;100808.69;5030551;28;19935;-83
2023/12/20 01:22:17;;;;;;;;;;;;;;;14.09;nan;100805.72;5027508;28;20713;-83
2023/12/20 01:24:42;;;;;;;;;;;;;;;14.10;nan;100801.97;5029639;28;19979;-83
2023/12/20 01:27:07;;;;;;;;;;;;;;;14.08;nan;100804.94;5027672;28;20312;-82
2023/12/20 01:29:33;;;;;;;;;;;;;;;14.07;nan;100814.09;5031263;28;19925;-83
2023/12/20 01:31:58;;;;;;;;;;;;;;;14.08;nan;100809.50;5033232;28;19921;-82
2023/12/20 01:34:23;;;;;;;;;;;;;;;14.06;nan;100808.97;5032262;28;19967;-83
2023/12/20 01:36:48;;;;;;;;;;;;;;;14.02;nan;100810.59;5033794;28;20055;-83
2023/12/20 01:39:14;;;;;;;;;;;;;;;13.99;nan;100811.09;5032669;28;19925;-83
2023/12/20 01:41:39;;;;;;;;;;;;;;;13.99;nan;100800.34;5032662;28;20775;-82
2023/12/20 01:44:04;;;;;;;;;;;;;;;13.96;nan;100817.84;5031964;28;19964;-83
2023/12/20 01:46:30;;;;;;;;;;;;;;;13.97;nan;100824.84;5032496;28;21081;-82
2023/12/20 01:48:55;;;;;;;;;;;;;;;13.99;nan;100824.56;5032036;28;20061;-82
2023/12/20 01:51:21;;;;;;;;;;;;;;;13.96;nan;100815.16;5031704;28;19935;-83
2023/12/20 01:53:46;;;;;;;;;;;;;;;13.92;nan;100819.47;5031395;28;20393;-83
2023/12/20 01:56:12;;;;;;;;;;;;;;;13.90;nan;100808.97;5033670;28;19924;-82
2023/12/20 01:58:40;;;;;;;;;;;;;;;13.86;nan;100807.09;5031761;28;20008;-82
2023/12/20 02:01:06;;;;;;;;;;;;;;;13.87;nan;100814.09;5032783;28;19921;-83
2023/12/20 02:03:31;;;;;;;;;;;;;;;13.82;nan;100814.06;5013517;28;19923;-82
2023/12/20 02:05:56;;;;;;;;;;;;;;;13.82;nan;100816.75;5033233;28;19932;-82
2023/12/20 02:08:21;;;;;;;;;;;;;;;13.79;nan;100807.31;5031944;28;19955;-82
2023/12/20 02:10:47;;;;;;;;;;;;;;;13.79;nan;100807.31;5032739;28;19943;-83
2023/12/20 02:13:12;;;;;;;;;;;;;;;13.79;nan;100807.31;5032011;28;19921;-82
2023/12/20 02:15:38;;;;;;;;;;;;;;;13.76;nan;100801.66;5032729;28;20015;-83
2023/12/20 02:18:03;;;;;;;;;;;;;;;13.75;nan;100805.44;5030851;28;19932;-83
2023/12/20 02:20:28;;;;;;;;;;;;;;;13.73;nan;100819.16;5033475;28;19925;-82
2023/12/20 02:22:54;;;;;;;;;;;;;;;13.73;nan;100821.06;5030276;28;19932;-82
2023/12/20 02:25:19;;;;;;;;;;;;;;;13.71;nan;100815.94;5031663;28;20049;-83
2023/12/20 02:27:44;;;;;;;;;;;;;;;13.71;nan;100810.56;5032143;28;20286;-82
2023/12/20 02:30:10;;;;;;;;;;;;;;;13.72;nan;100811.38;5030627;28;19978;-83
2023/12/20 02:32:35;;;;;;;;;;;;;;;13.72;nan;100804.09;5030948;28;19970;-83
2023/12/20 02:35:00;;;;;;;;;;;;;;;13.72;nan;100808.69;5030579;28;20452;-83
2023/12/20 02:37:25;;;;;;;;;;;;;;;13.72;nan;100804.09;5032071;28;20396;-82
2023/12/20 02:39:51;;;;;;;;;;;;;;;13.74;nan;100809.22;5031117;28;19971;-82
2023/12/20 02:42:16;;;;;;;;;;;;;;;13.73;nan;100810.28;5032312;28;20020;-83
2023/12/20 02:44:41;;;;;;;;;;;;;;;13.72;nan;100811.38;5031854;28;21092;-82
2023/12/20 02:47:07;;;;;;;;;;;;;;;13.72;nan;100800.59;5031526;28;19921;-82
2023/12/20 02:49:32;;;;;;;;;;;;;;;13.71;nan;100799.78;5031006;28;19953;-83
2023/12/20 02:51:57;;;;;;;;;;;;;;;13.71;nan;100804.38;5030613;28;21106;-82
2023/12/20 02:54:22;;;;;;;;;;;;;;;13.68;nan;100802.22;5032554;28;19921;-83
2023/12/20 02:56:48;;;;;;;;;;;;;;;13.68;nan;100802.22;5031445;28;19925;-82
2023/12/20 02:59:13;;;;;;;;;;;;;;;13.66;nan;100798.97;5032164;28;19928;-83
2023/12/20 03:01:42;;;;;;;;;;;;;;;13.60;nan;100809.72;5031925;28;20628;-82
2023/12/20 03:04:07;;;;;;;;;;;;;;;13.59;nan;100802.72;5030786;28;19931;-82
2023/12/20 03:06:33;;;;;;;;;;;;;;;13.55;nan;100796.25;5031762;28;19925;-82
2023/12/20 03:08:58;;;;;;;;;;;;;;;13.58;nan;100795.72;5030502;28;20607;-82
2023/12/20 03:11:26;;;;;;;;;;;;;;;13.57;nan;100799.50;5030766;28;19932;-83
2023/12/20 03:13:51;;;;;;;;;;;;;;;13.53;nan;100787.66;5013666;28;20506;-82
2023/12/20 03:16:16;;;;;;;;;;;;;;;13.51;nan;100787.09;5030287;28;19924;-83
2023/12/20 03:18:42;;;;;;;;;;;;;;;13.50;nan;100787.38;5029107;28;20312;-83
2023/12/20 03:21:07;;;;;;;;;;;;;;;13.49;nan;100793.84;5028311;28;20033;-82
2023/12/20 03:23:33;;;;;;;;;;;;;;;13.46;nan;100788.97;5030527;28;19925;-83
2023/12/20 03:25:59;;;;;;;;;;;;;;;13.43;nan;100790.31;5029749;28;20603;-83
2023/12/20 03:28:24;;;;;;;;;;;;;;;13.36;nan;100791.63;5029934;28;20011;-82
2023/12/20 03:30:50;;;;;;;;;;;;;;;13.37;nan;100783.31;5030592;28;19925;-83
2023/12/20 03:33:15;;;;;;;;;;;;;;;13.33;nan;100779.53;5030829;28;19925;-82
2023/12/20 03:35:40;;;;;;;;;;;;;;;13.30;nan;100786.25;5031284;28;19920;-82
2023/12/20 03:38:05;;;;;;;;;;;;;;;13.32;nan;100783.28;5029486;28;19925;-83
2023/12/20 03:40:31;;;;;;;;;;;;;;;13.33;nan;100784.91;5031149;28;19955;-83
2023/12/20 03:42:56;;;;;;;;;;;;;;;13.30;nan;100780.88;5030381;28;19925;-82
2023/12/20 03:45:21;;;;;;;;;;;;;;;13.32;nan;100791.38;5031095;28;19925;-83
2023/12/20 03:47:47;;;;;;;;;;;;;;;13.34;nan;100791.91;5029639;28;19925;-83
2023/12/20 03:50:12;;;;;;;;;;;;;;;13.33;nan;100792.19;5027276;28;19932;-83
2023/12/20 03:52:38;;;;;;;;;;;;;;;13.32;nan;100785.97;5028563;28;19972;-82
2023/12/20 03:55:03;;;;;;;;;;;;;;;13.30;nan;100782.75;5012858;28;20588;-82
2023/12/20 03:57:28;;;;;;;;;;;;;;;13.27;nan;100783.25;5031489;28;19924;-83
2023/12/20 03:59:54;;;;;;;;;;;;;;;13.26;nan;100781.66;5029203;28;21057;-82
2023/12/20 04:02:19;;;;;;;;;;;;;;;13.24;nan;100781.91;5029956;28;19932;-83
2023/12/20 04:04:44;;;;;;;;;;;;;;;13.22;nan;100776.00;5030980;28;19925;-83
2023/12/20 04:07:09;;;;;;;;;;;;;;;13.21;nan;100778.94;5029772;28;20403;-82
2023/12/20 04:09:35;;;;;;;;;;;;;;;13.19;nan;100764.94;5029297;28;19925;-83
2023/12/20 04:12:00;;;;;;;;;;;;;;;13.18;nan;100768.72;5031395;28;20496;-83
2023/12/20 04:14:25;;;;;;;;;;;;;;;13.16;nan;100768.97;5029619;28;19931;-83
2023/12/20 04:16:50;;;;;;;;;;;;;;;13.12;nan;100765.19;5030421;28;19971;-83
2023/12/20 04:19:16;;;;;;;;;;;;;;;13.08;nan;100772.13;5029089;28;19933;-84
2023/12/20 04:21:41;;;;;;;;;;;;;;;13.05;nan;100769.97;5029325;28;20363;-83
2023/12/20 04:24:06;;;;;;;;;;;;;;;13.04;nan;100762.19;5030842;28;19917;-82
2023/12/20 04:26:32;;;;;;;;;;;;;;;13.03;nan;100761.38;5030009;28;21229;-82
2023/12/20 04:28:57;;;;;;;;;;;;;;;13.02;nan;100752.50;5030490;28;20078;-83
2023/12/20 04:31:22;;;;;;;;;;;;;;;13.00;nan;100757.34;5028563;28;19925;-83
2023/12/20 04:33:48;;;;;;;;;;;;;;;12.94;nan;100766.47;5029017;28;20560;-83
2023/12/20 04:36:13;;;;;;;;;;;;;;;12.91;nan;100758.91;5031064;28;19973;-83
2023/12/20 04:38:38;;;;;;;;;;;;;;;12.84;nan;100752.97;5029810;28;20789;-84
2023/12/20 04:41:03;;;;;;;;;;;;;;;12.84;nan;100754.84;5028389;28;19986;-83
2023/12/20 04:43:29;;;;;;;;;;;;;;;12.84;nan;100744.91;5030010;28;19925;-83
2023/12/20 04:45:55;;;;;;;;;;;;;;;12.84;nan;100752.97;5030449;28;19939;-83
2023/12/20 04:48:20;;;;;;;;;;;;;;;12.86;nan;100755.38;5028242;28;20466;-83
2023/12/20 04:50:45;;;;;;;;;;;;;;;12.82;nan;100748.91;5030302;28;20550;-83
2023/12/20 04:53:10;;;;;;;;;;;;;;;12.74;nan;100749.41;5012919;28;19932;-83
2023/12/20 04:55:36;;;;;;;;;;;;;;;12.67;nan;100742.41;5030275;28;19925;-83
2023/12/20 04:58:01;;;;;;;;;;;;;;;12.60;nan;100736.47;5029581;28;19935;-83
2023/12/20 05:00:27;;;;;;;;;;;;;;;12.51;nan;100739.91;5029755;28;19921;-83
2023/12/20 05:02:52;;;;;;;;;;;;;;;12.43;nan;100740.41;5027871;28;19925;-83
2023/12/20 05:05:17;;;;;;;;;;;;;;;12.46;nan;100739.88;5032825;28;20048;-82
2023/12/20 05:07:43;;;;;;;;;;;;;;;12.50;nan;100738.28;5032098;28;20401;-84
2023/12/20 05:10:08;;;;;;;;;;;;;;;12.52;nan;100746.88;5032127;28;19925;-83
2023/12/20 05:12:34;;;;;;;;;;;;;;;12.53;nan;100745.81;5033729;28;19925;-82
2023/12/20 05:14:59;;;;;;;;;;;;;;;12.53;nan;100735.88;5033620;28;20070;-83
2023/12/20 05:17:25;;;;;;;;;;;;;;;12.50;nan;100746.34;5033067;28;20364;-82
2023/12/20 05:19:50;;;;;;;;;;;;;;;12.52;nan;100752.25;5033650;28;20020;-82
2023/12/20 05:22:16;;;;;;;;;;;;;;;12.46;nan;100743.38;5033850;28;19925;-82
2023/12/20 05:24:41;;;;;;;;;;;;;;;12.48;nan;100745.78;5031955;28;19972;-83
2023/12/20 05:27:07;;;;;;;;;;;;;;;12.43;nan;100746.59;5033077;28;19931;-83
2023/12/20 05:29:32;;;;;;;;;;;;;;;12.44;nan;100747.41;5032863;28;19925;-82
2023/12/20 05:31:58;;;;;;;;;;;;;;;12.48;nan;100753.84;5033716;28;20016;-83
2023/12/20 05:34:23;;;;;;;;;;;;;;;12.51;nan;100747.97;5029921;28;19974;-83
2023/12/20 05:36:48;;;;;;;;;;;;;;;12.47;nan;100744.19;5032971;28;19931;-83
2023/12/20 05:39:13;;;;;;;;;;;;;;;12.43;nan;100740.41;5033423;28;20399;-83
2023/12/20 05:41:39;;;;;;;;;;;;;;;12.40;nan;100739.06;5031147;28;20026;-83
2023/12/20 05:44:04;;;;;;;;;;;;;;;12.35;nan;100728.25;5033417;28;19932;-83
2023/12/20 05:46:29;;;;;;;;;;;;;;;12.31;nan;100727.97;5032558;28;20381;-83
2023/12/20 05:48:54;;;;;;;;;;;;;;;12.28;nan;100727.69;5032369;28;19925;-83
2023/12/20 05:51:20;;;;;;;;;;;;;;;12.27;nan;100734.94;5032224;28;20463;-83
2023/12/20 05:53:45;;;;;;;;;;;;;;;12.29;nan;100721.25;5033258;28;20136;-83
2023/12/20 05:56:10;;;;;;;;;;;;;;;12.24;nan;100722.03;5031580;28;20377;-83
2023/12/20 05:58:36;;;;;;;;;;;;;;;12.18;nan;100720.34;5030658;28;19936;-83
2023/12/20 06:01:04;;;;;;;;;;;;;;;12.14;nan;100711.22;5032484;28;19925;-83
2023/12/20 06:03:30;;;;;;;;;;;;;;;12.07;nan;100713.31;5032565;28;19948;-83
2023/12/20 06:05:55;;;;;;;;;;;;;;;12.01;nan;100712.47;5032635;28;20412;-82
2023/12/20 06:08:20;;;;;;;;;;;;;;;12.02;nan;100716.75;5031160;28;19925;-84
2023/12/20 06:10:46;;;;;;;;;;;;;;;11.99;nan;100711.09;5032453;28;19928;-82
2023/12/20 06:13:13;;;;;;;;;;;;;;;11.96;nan;100707.06;5030869;28;20387;-83
2023/12/20 06:15:38;;;;;;;;;;;;;;;11.94;nan;100703.03;5015029;28;19952;-83
2023/12/20 06:18:03;;;;;;;;;;;;;;;11.89;nan;100693.06;5032414;28;19929;-83
2023/12/20 06:20:29;;;;;;;;;;;;;;;11.80;nan;100687.34;5031405;28;20393;-83
2023/12/20 06:22:54;;;;;;;;;;;;;;;11.78;nan;100686.78;5031372;28;20824;-83
2023/12/20 06:25:19;;;;;;;;;;;;;;;11.73;nan;100686.75;5029751;28;20847;-83
2023/12/20 06:27:44;;;;;;;;;;;;;;;11.68;nan;100686.69;5029835;28;19928;-83
2023/12/20 06:30:10;;;;;;;;;;;;;;;11.70;nan;100692.63;5031771;28;20278;-83
2023/12/20 06:32:35;;;;;;;;;;;;;;;11.71;nan;100696.94;5030608;28;20912;-83
2023/12/20 06:35:01;;;;;;;;;;;;;;;11.72;nan;100687.81;5030869;28;20312;-83
2023/12/20 06:37:26;;;;;;;;;;;;;;;11.72;nan;100682.44;5030953;28;19924;-83
2023/12/20 06:39:51;;;;;;;;;;;;;;;11.67;nan;100678.88;5029474;28;19951;-84
2023/12/20 06:42:17;;;;;;;;;;;;;;;11.65;nan;100686.38;5029417;28;20205;-83
2023/12/20 06:44:42;;;;;;;;;;;;;;;11.58;nan;100686.63;5031204;28;19931;-83
2023/12/20 06:47:07;;;;;;;;;;;;;;;11.52;nan;100684.97;5031989;28;19956;-82
2023/12/20 06:49:32;;;;;;;;;;;;;;;11.46;nan;100678.72;5031230;28;20369;-82
2023/12/20 06:51:58;;;;;;;;;;;;;;;11.40;nan;100676.25;5012607;28;19921;-82
2023/12/20 06:54:23;;;;;;;;;;;;;;;11.37;nan;100682.13;5031189;28;19960;-82
2023/12/20 06:56:48;;;;;;;;;;;;;;;11.37;nan;100687.50;5031832;28;19921;-82
2023/12/20 06:59:14;;;;;;;;;;;;;;;11.39;nan;100688.06;5030297;28;20031;-82
2023/12/20 07:01:39;;;;;;;;;;;;;;;11.44;nan;100685.41;5032069;28;19933;-82
2023/12/20 07:04:04;;;;;;;;;;;;;;;11.49;nan;100682.78;5026460;28;19983;-83
2023/12/20 07:06:29;;;;;;;;;;;;;;;11.58;nan;100673.19;5031426;28;19965;-82
2023/12/20 07:08:54;;;;;;;;;;;;;;;11.60;nan;100676.44;5028716;28;20880;-82
2023/12/20 07:11:20;;;;;;;;;;;;;;;11.55;nan;100673.72;5030449;28;19925;-83
2023/12/20 07:13:45;;;;;;;;;;;;;;;11.55;nan;100667.53;5031965;28;20074;-83
2023/12/20 07:16:10;;;;;;;;;;;;;;;11.51;nan;100664.56;5031583;28;19921;-82
2023/12/20 07:18:36;;;;;;;;;;;;;;;11.53;nan;100667.78;5029474;28;20645;-82
2023/12/20 07:21:01;;;;;;;;;;;;;;;11.50;nan;100668.31;5021568;28;20381;-82
2023/12/20 07:23:26;;;;;;;;;;;;;;;11.47;nan;100674.16;5021742;28;19928;-82
2023/12/20 07:25:52;;;;;;;;;;;;;;;11.44;nan;100670.13;5010107;28;19931;-82
2023/12/20 07:28:17;;;;;;;;;;;;;;;11.47;nan;100679.53;5029179;28;19932;-83
2023/12/20 07:30:42;;;;;;;;;;;;;;;11.54;nan;100674.78;5026854;28;20019;-82
2023/12/20 07:33:09;;;;;;;;;;;;;;;11.57;nan;100676.94;5030499;28;19924;-82
2023/12/20 07:35:34;;;;;;;;;;;;;;;11.66;nan;100678.06;5030619;28;20429;-82
2023/12/20 07:37:59;;;;;;;;;;;;;;;11.67;nan;100673.50;5027193;28;20023;-83
2023/12/20 07:40:25;;;;;;;;;;;;;;;11.68;nan;100667.91;5015201;28;19931;-83
2023/12/20 07:42:50;;;;;;;;;;;;;;;11.69;nan;100676.78;5027497;28;19967;-82
2023/12/20 07:45:15;;;;;;;;;;;;;;;11.67;nan;100671.66;5027896;28;19925;-82
2023/12/20 07:47:41;;;;;;;;;;;;;;;11.70;nan;100681.88;5026716;28;20051;-82
2023/12/20 07:50:06;;;;;;;;;;;;;;;11.71;nan;100680.81;5029132;28;20550;-82
2023/12/20 07:52:32;;;;;;;;;;;;;;;11.67;nan;100679.72;5030111;28;19925;-82
2023/12/20 07:54:57;;;;;;;;;;;;;;;11.65;nan;100665.72;5028134;28;20389;-82
2023/12/20 07:57:23;;;;;;;;;;;;;;;11.66;nan;100671.91;5028568;28;19960;-82
2023/12/20 07:59:48;;;;;;;;;;;;;;;11.63;nan;100661.69;5028806;28;20654;-82
2023/12/20 08:02:13;;;;;;;;;;;;;;;11.63;nan;100659.81;5028020;28;20405;-82
2023/12/20 08:04:39;;;;;;;;;;;;;;;11.62;nan;100660.88;5029360;28;19932;-82
2023/12/20 08:07:04;;;;;;;;;;;;;;;11.66;nan;100666.53;5028302;28;19925;-82
2023/12/20 08:09:29;;;;;;;;;;;;;;;11.68;nan;100662.56;5026575;28;19926;-82
2023/12/20 08:11:55;;;;;;;;;;;;;;;11.68;nan;100665.22;5028743;28;19924;-82
2023/12/20 08:14:20;;;;;;;;;;;;;;;11.66;nan;100659.28;5025602;28;20404;-82
2023/12/20 08:16:45;;;;;;;;;;;;;;;11.62;nan;100666.25;5027956;28;19932;-84
2023/12/20 08:19:11;;;;;;;;;;;;;;;11.68;nan;100657.19;5027306;28;19929;-83
2023/12/20 08:21:36;;;;;;;;;;;;;;;11.71;nan;100656.66;5027583;28;20589;-82
2023/12/20 08:24:01;;;;;;;;;;;;;;;11.67;nan;100657.41;5028560;28;19979;-82
2023/12/20 08:26:26;;;;;;;;;;;;;;;11.61;nan;100656.56;5027178;28;19921;-82
2023/12/20 08:28:52;;;;;;;;;;;;;;;11.58;nan;100646.34;5027673;28;19925;-82
2023/12/20 08:31:18;;;;;;;;;;;;;;;11.59;nan;100647.97;5032408;28;20288;-82
2023/12/20 08:33:47;;;;;;;;;;;;;;;11.56;nan;100643.13;5042544;28;19974;-83
2023/12/20 08:36:13;;;;;;;;;;;;;;;11.61;nan;100645.03;5037060;28;20011;-83
2023/12/20 08:38:38;;;;;;;;;;;;;;;11.64;nan;100647.19;5032917;28;20440;-83
2023/12/20 08:41:05;;;;;;;;;;;;;;;11.65;nan;100644.25;5034062;28;19928;-83
2023/12/20 08:43:31;;;;;;;;;;;;;;;11.67;nan;100642.16;5034406;28;20540;-82
2023/12/20 08:45:56;;;;;;;;;;;;;;;11.70;nan;100636.25;5036532;28;19947;-82
2023/12/20 08:48:21;;;;;;;;;;;;;;;11.74;nan;100639.22;5028895;28;19991;-82
2023/12/20 08:50:48;;;;;;;;;;;;;;;11.72;nan;100634.13;5040839;28;19932;-83
2023/12/20 08:53:15;;;;;;;;;;;;;;;11.71;nan;100637.88;5038667;28;19921;-83
2023/12/20 08:55:40;;;;;;;;;;;;;;;11.72;nan;100636.81;5039095;28;19921;-82
2023/12/20 08:58:06;;;;;;;;;;;;;;;11.70;nan;100620.16;5034053;28;19931;-83
2023/12/20 09:00:32;;;;;;;;;;;;;;;11.74;nan;100629.31;5035963;28;19932;-83
2023/12/20 09:02:57;;;;;;;;;;;;;;;11.79;nan;100624.00;5043961;28;20311;-83
2023/12/20 09:05:22;;;;;;;;;;;;;;;11.81;nan;100621.03;5042029;28;19920;-83
2023/12/20 09:07:48;;;;;;;;;;;;;;;11.76;nan;100624.47;5034187;28;19928;-82
2023/12/20 09:10:13;;;;;;;;;;;;;;;11.74;nan;100629.31;5036240;28;20417;-82
2023/12/20 09:12:40;;;;;;;;;;;;;;;11.72;nan;100628.75;5040918;28;19928;-83
2023/12/20 09:15:06;;;;;;;;;;;;;;;11.77;nan;100631.47;5041981;28;19936;-82
2023/12/20 09:17:31;;;;;;;;;;;;;;;11.74;nan;100629.31;5037718;28;20412;-83
2023/12/20 09:19:57;;;;;;;;;;;;;;;11.78;nan;100627.75;5035204;28;19916;-83
2023/12/20 09:22:22;;;;;;;;;;;;;;;11.82;nan;100633.41;5037908;28;19918;-82
2023/12/20 09:24:47;;;;;;;;;;;;;;;11.86;nan;100629.16;5041151;28;20066;-83
2023/12/20 09:27:12;;;;;;;;;;;;;;;11.88;nan;100623.53;5037921;28;19974;-83
2023/12/20 09:29:38;;;;;;;;;;;;;;;11.96;nan;100617.66;5040445;28;19968;-83
2023/12/20 09:32:03;;;;;;;;;;;;;;;11.96;nan;100623.81;5036482;28;19917;-83
2023/12/20 09:34:29;;;;;;;;;;;;;;;11.97;nan;100621.94;5041979;28;20450;-83
2023/12/20 09:36:54;;;;;;;;;;;;;;;11.98;nan;100616.31;5038735;28;19920;-83
2023/12/20 09:39:20;;;;;;;;;;;;;;;12.01;nan;100615.78;5027303;28;19929;-83
2023/12/20 09:41:50;;;;;;;;;;;;;;;12.02;nan;100603.16;5028034;28;19925;-83
2023/12/20 09:44:19;;;;;;;;;;;;;;;12.04;nan;100609.13;5027990;28;19957;-82
2023/12/20 09:46:45;;;;;;;;;;;;;;;11.97;nan;100614.69;5029378;28;19953;-82
2023/12/20 09:49:11;;;;;;;;;;;;;;;11.97;nan;100613.88;5027760;28;19925;-82
2023/12/20 09:51:36;;;;;;;;;;;;;;;11.96;nan;100606.91;5029442;28;19967;-82
2023/12/20 09:54:03;;;;;;;;;;;;;;;11.97;nan;100597.78;5032056;28;19932;-82
2023/12/20 09:56:29;;;;;;;;;;;;;;;12.00;nan;100595.38;5032514;28;19925;-82
2023/12/20 09:58:54;;;;;;;;;;;;;;;12.01;nan;100585.44;5030102;28;19929;-82
2023/12/20 10:01:21;;;;;;;;;;;;;;;12.00;nan;100589.19;5031682;28;20015;-84
2023/12/20 10:03:46;;;;;;;;;;;;;;;12.06;nan;100593.53;5038807;28;19994;-83
2023/12/20 10:06:11;;;;;;;;;;;;;;;12.12;nan;100578.25;5039229;28;19928;-83
2023/12/20 10:08:36;;;;;;;;;;;;;;;12.15;nan;100577.72;5043042;28;20324;-83
2023/12/20 10:11:03;;;;;;;;;;;;;;;12.13;nan;100564.56;5044508;28;19925;-82
2023/12/20 10:13:29;;;;;;;;;;;;;;;12.12;nan;100562.94;5044445;28;19917;-82
2023/12/20 10:15:55;;;;;;;;;;;;;;;12.13;nan;100548.44;5044313;28;19922;-82
2023/12/20 10:18:20;;;;;;;;;;;;;;;12.07;nan;100549.50;5036114;28;20523;-82
2023/12/20 10:20:46;;;;;;;;;;;;;;;12.08;nan;100543.06;5044151;28;20453;-83
2023/12/20 10:23:12;;;;;;;;;;;;;;;12.08;nan;100541.19;5043047;28;19917;-83
2023/12/20 10:25:37;;;;;;;;;;;;;;;12.10;nan;100538.22;5049378;28;20003;-83
2023/12/20 10:28:10;;;;;;;;;;;;;;;12.16;nan;100531.81;5038837;28;20133;-82
2023/12/20 10:30:36;;;;;;;;;;;;;;;12.20;nan;100519.44;5045122;28;19917;-82
2023/12/20 10:33:01;;;;;;;;;;;;;;;12.28;nan;100516.28;5042047;28;20290;-82
2023/12/20 10:35:26;;;;;;;;;;;;;;;12.27;nan;100511.16;5041301;28;19921;-83
2023/12/20 10:37:56;;;;;;;;;;;;;;;12.29;nan;100509.03;5041485;28;19931;-83
2023/12/20 10:40:21;;;;;;;;;;;;;;;12.31;nan;100493.44;5046867;28;20019;-82
2023/12/20 10:42:47;;;;;;;;;;;;;;;12.36;nan;100494.25;5040190;28;20015;-83
2023/12/20 10:45:12;;;;;;;;;;;;;;;12.39;nan;100484.88;5037025;28;20304;-83
2023/12/20 10:47:39;;;;;;;;;;;;;;;12.46;nan;100488.09;5043729;28;19979;-83
2023/12/20 10:50:05;;;;;;;;;;;;;;;12.55;nan;100491.84;5041667;28;20512;-83
2023/12/20 10:52:32;;;;;;;;;;;;;;;12.58;nan;100466.34;5038100;28;20825;-82
2023/12/20 10:54:57;;;;;;;;;;;;;;;12.56;nan;100484.59;5040948;28;19927;-82
2023/12/20 10:57:26;;;;;;;;;;;;;;;12.61;nan;100468.50;5037094;28;19921;-83
2023/12/20 10:59:53;;;;;;;;;;;;;;;12.62;nan;100475.50;5042475;28;19920;-84
2023/12/20 11:02:18;;;;;;;;;;;;;;;12.61;nan;100476.56;5038719;28;19921;-83
2023/12/20 11:04:59;;;;;;;;;;;;;;;12.61;nan;100484.63;5043305;28;19925;-83
2023/12/20 11:07:24;;;;;;;;;;;;;;;12.56;nan;100481.91;5037684;28;19925;-83
2023/12/20 11:09:59;;;;;;;;;;;;;;;12.60;nan;100491.06;5038921;28;20534;-83
2023/12/20 11:12:32;;;;;;;;;;;;;;;12.62;nan;100473.59;5038776;28;19924;-82
2023/12/20 11:15:02;;;;;;;;;;;;;;;12.66;nan;100468.50;5040560;28;19948;-83
2023/12/20 11:17:28;;;;;;;;;;;;;;;12.71;nan;100455.84;5037741;28;19917;-83
2023/12/20 11:19:53;;;;;;;;;;;;;;;12.75;nan;100458.00;5041563;28;19994;-84
2023/12/20 11:22:21;;;;;;;;;;;;;;;12.74;nan;100454.50;5036077;28;19931;-83
2023/12/20 11:24:47;;;;;;;;;;;;;;;12.75;nan;100440.00;5032740;28;19931;-83
2023/12/20 11:27:13;;;;;;;;;;;;;;;12.72;nan;100421.72;5028446;28;19924;-83
2023/12/20 11:29:39;;;;;;;;;;;;;;;12.77;nan;100434.38;5025475;28;20183;-83
2023/12/20 11:32:23;;;;;;;;;;;;;;;12.71;nan;100422.78;5029848;28;19925;-83
2023/12/20 11:34:49;;;;;;;;;;;;;;;12.69;nan;100419.56;5033913;28;19951;-83
2023/12/20 11:37:14;;;;;;;;;;;;;;;12.67;nan;100416.34;5042471;28;20613;-83
2023/12/20 11:39:40;;;;;;;;;;;;;;;12.65;nan;100415.81;5044716;28;20515;-83
2023/12/20 11:42:06;;;;;;;;;;;;;;;12.62;nan;100397.53;5051829;28;19928;-83
2023/12/20 11:44:32;;;;;;;;;;;;;;;12.59;nan;100384.66;5036830;28;19940;-83
2023/12/20 11:46:57;;;;;;;;;;;;;;;12.62;nan;100378.72;5047206;28;20417;-83
2023/12/20 11:49:23;;;;;;;;;;;;;;;12.62;nan;100374.16;5031098;28;20005;-83
2023/12/20 11:51:49;;;;;;;;;;;;;;;12.62;nan;100365.28;5047516;28;19947;-83
2023/12/20 11:54:15;;;;;;;;;;;;;;;12.68;nan;100356.94;5051255;28;19925;-83
2023/12/20 11:56:40;;;;;;;;;;;;;;;12.73;nan;100339.19;5045091;28;19964;-82
2023/12/20 11:59:07;;;;;;;;;;;;;;;12.71;nan;100334.88;5047658;28;20012;-83
2023/12/20 12:01:33;;;;;;;;;;;;;;;12.80;nan;100327.09;5046694;28;20624;-82
2023/12/20 12:04:07;;;;;;;;;;;;;;;12.82;nan;100327.63;5039124;28;20397;-83
2023/12/20 12:06:33;;;;;;;;;;;;;;;12.84;nan;100312.00;5037905;28;19925;-83
2023/12/20 12:08:58;;;;;;;;;;;;;;;12.79;nan;100311.22;5038197;28;19921;-83
2023/12/20 12:11:24;;;;;;;;;;;;;;;12.72;nan;100319.56;5042995;28;19920;-83
2023/12/20 12:13:50;;;;;;;;;;;;;;;12.63;nan;100310.47;5045807;28;19917;-83
2023/12/20 12:16:19;;;;;;;;;;;;;;;12.63;nan;100302.41;5045330;28;19928;-83
2023/12/20 12:18:45;;;;;;;;;;;;;;;12.62;nan;100300.78;5041529;28;20473;-84
2023/12/20 12:21:10;;;;;;;;;;;;;;;12.58;nan;100299.72;5045649;28;19943;-84
2023/12/20 12:23:36;;;;;;;;;;;;;;;12.51;nan;100288.44;5043297;28;19978;-83
2023/12/20 12:26:03;;;;;;;;;;;;;;;12.50;nan;100274.19;5047321;28;20721;-84
2023/12/20 12:28:29;;;;;;;;;;;;;;;12.48;nan;100267.50;5039050;28;19920;-83
2023/12/20 12:30:58;;;;;;;;;;;;;;;12.39;nan;100267.25;5043144;28;19927;-84
2023/12/20 12:33:24;;;;;;;;;;;;;;;12.32;nan;100262.16;5039839;28;19952;-83
2023/12/20 12:35:50;;;;;;;;;;;;;;;12.24;nan;100260.03;5046870;28;20553;-83
2023/12/20 12:38:15;;;;;;;;;;;;;;;12.25;nan;100269.69;5049890;28;19924;-83
2023/12/20 12:40:43;;;;;;;;;;;;;;;12.19;nan;100251.13;5041562;28;19917;-83
2023/12/20 12:43:08;;;;;;;;;;;;;;;12.15;nan;100291.16;5048886;28;19916;-82
2023/12/20 12:45:33;;;;;;;;;;;;;;;12.09;nan;100255.47;5043295;28;19924;-83
2023/12/20 12:47:59;;;;;;;;;;;;;;;12.04;nan;100257.34;5043933;28;19917;-83
2023/12/20 12:50:24;;;;;;;;;;;;;;;12.09;nan;100260.84;5041381;28;19931;-82